Latest METAR/SPECI Reports

LROP
METAR LROP 192100Z VRB02KT CAVOK 03/00 Q1011 NOSIG=
LRTR
METAR LRTR 192100Z 17001KT 6000 -RA BKN015 OVC040 04/02 Q1012
R11/29//95=
LRCL
METAR LRCL 192100Z 11002KT 3000 BR FEW046 SCT058 01/M00 Q1010
R07/29//95=
LRSB
METAR LRSB 192100Z 00000KT 4500 -RA BR FEW006 SCT030 01/M00 Q1010
R27/29//95=
LRBS
METAR LRBS 192100Z VRB01KT CAVOK 04/M01 Q1011 NOSIG=
LRCK
METAR LRCK 192100Z 24006KT CAVOK 00/M03 Q1012 NOSIG=
LRSV
METAR LRSV 192100Z 00000KT 9999 FEW046 02/M04 Q1009=
LRIA
METAR LRIA 192100Z 09006KT 9999 FEW048 00/M03 Q1010 R14/19//95=
LRTM
METAR LRTM 192100Z AUTO 09003KT 6000 -SHRA FEW060/// 01/00 Q1010=
LROD
SPECI LROD 192111Z AUTO 22009KT 5000 BR FEW004/// BKN036/// 04/03
Q1011=
LRSM
SPECI LRSM 192108Z AUTO 16005KT 5000 -SHRA FEW021/// SCT038///
BKN050/// 02/02 Q1010=
LRBM
METAR LRBM 192100Z AUTO /////KT //// FEW004/// SCT012/// BKN017///
///// Q////=
LRAR
METAR LRAR 192100Z AUTO 23006KT 9999 R09////// R27/P2000 NCD /////
Q1012 REUP=
LRCV
METAR LRCV 192100Z AUTO 11003KT SCT065/// BKN080/// 03/M02 Q1009=
LRTC
METAR LRTC 192100Z AUTO 19002KT 170V230 9999 02/M00 Q1012=
LRBC
METAR LRBC 192100Z 13006KT CAVOK 03/00 Q1010 R16/910395=
LRBO
METAR LRBO 192100Z 30006KT 9999 SCT100 01/M01 Q1011 BLU BLU=
LRCT
METAR LRCT 192100Z 15010KT 6000 -RA OVC050 03/00 Q1009 WHT WHT=
LRFT
Report more than 3 hours old: METAR LRFT 191200Z 25020KT 9999 FEW100 07/M02 Q1009 BLU BLU=
LRTZ
METAR LRTZ 192100Z VRB03KT 9999 BKN200 02/M02 Q1012 BLU BLU=

Latest TAF reports

LROP
TAF LROP 191700Z 1918/2018 25007KT CAVOK PROB30 TEMPO 2003/2006 5000
    BR BECMG 2010/2012 06010KT 5000 -RA BR BKN015 BKN035 TEMPO
    2012/2016 3000 RA BR BKN010 OVC030 BECMG 2016/2018 3000 SNRA
    BKN010 OVC025=
LRTR
TAF LRTR 191700Z 1918/2018 VRB04KT 8000 -RA BKN020 OVC040 TEMPO
    1918/1919 5000 -RA BR BKN015 OVC030 BECMG 1919/1921 3000 BR
    BKN010 OVC025 TEMPO 1922/2008 0800 FG OVC002 PROB40 TEMPO
    2000/2007 0350 -DZ FG VV001 BECMG 2010/2012 9999 NSW SCT020
    TEMPO 2016/2018 3000 BR BKN010=
LRCL
TAF LRCL 192000Z 1921/2006 VRB04KT 3000 BR SCT045 TEMPO 1921/1923
    1500 -RA BR BKN015 BKN040 TEMPO 1923/2002 1500 -RASN BR BKN015
    BKN040 TEMPO 2002/2006 1500 BR BKN005 BKN035=
LRSB
TAF LRSB 191700Z 1918/2018 VRB04KT 9999 BKN050 BECMG 1918/1920 5000
    -RASN BR BKN015 OVC030 PROB40 TEMPO 1920/1923 3000 -FZRA BKN010
    OVC025 BECMG 1923/2001 5000 -SN BR BKN010 OVC025 TEMPO 2003/2015
    3000 SN BR BKN005 OVC025=
LRBS
TAF LRBS 191700Z 1918/2018 26007KT CAVOK PROB30 TEMPO 2003/2006 5000
    BR BECMG 2010/2012 06010KT 5000 -RA BR BKN015 BKN035 TEMPO
    2012/2016 3000 RA BR BKN010 OVC030 BECMG 2016/2018 3000 SNRA
    BKN010 OVC025=
LRCK
TAF LRCK 191700Z 1918/2018 VRB04KT CAVOK BECMG 2016/2018 5000 -RA BR
    BKN015 OVC035=
LRSV
TAF LRSV 192000Z 1921/2006 VRB04KT CAVOK PROB30 TEMPO 1922/1924
    -FZRA BECMG 2000/2002 5000 -SN BR BKN010 OVC030 TEMPO 2002/2006
    3000 -SN BR BKN005 OVC025=
LRIA
TAF LRIA 192000Z 1921/2006 VRB04KT 7000 BKN035 PROB30 TEMPO
    1922/1924 -FZRA BECMG 2000/2002 5000 -SN BR BKN010 OVC035=
LRTM
TAF LRTM 191400Z 1915/1924 VRB04KT 9999 BKN045 BECMG 1915/1917 5000
    -RA BKN010 BKN030 TEMPO 1918/1924 3000 -RASN BKN005 BKN025=
LROD
TAF AMD LROD 192002Z 1920/2003 CNL=
LRSM
TAF AMD LRSM 191706Z 1917/1924 CNL=
LRBM
TAF AMD LRBM 191706Z 1917/1924 CNL=
LRAR
TAF AMD LRAR 192002Z 1920/2003 CNL=
LRCV
TAF LRCV 191400Z 1915/1924 25008KT CAVOK=
LRTC
TAF LRTC 191400Z 1915/1924 26008KT CAVOK=
LRBC
TAF LRBC 191700Z 1918/2003 VRB04KT CAVOK BECMG 1919/1921 5000 BR=
LRBO
TAF LRBO 191700Z 1918/2018 22008KT 9999 SCT100
         BECMG 1923/2001 SCT030 BKN080
         TEMPO 2006/2010 34012KT 4000 RASN BR BKN010 OVC020
         BECMG 2013/2015 04014KT 3000 RASN BR BKN005 OVC015=
LRCT
TAF LRCT 191700Z 1918/2018 15010KT 9999 OVC080
         TEMPO 1920/2000 3000 RASN BR BKN015 OVC030=
LRFT
TAF LRFT 191100Z 1912/2012 25020KT 9999 SCT100 BECMG 1916/1918 21006KT
         BECMG 1923/2001 BKN090=
LRTZ
TAF LRTZ 191700Z 1918/2018 VRB03KT 9999 SCT200
         BECMG 2009/2011 30014KT BKN020 BKN080
         BECMG 2016/2018 36010KT 6000 -SN BKN010 OVC060=

Valid WARNINGS

LRIA AD WRNG 1 VALID 191404/200700 FROST OBS AT 1400Z NC=
LRSV AD WRNG 1 VALID 192100/200900 FROST FCST NC=